sensor_id;sensor_type;location;lat;lon;timestamp;P1;durP1;ratioP1;P2;durP2;ratioP2
5690;SDS011;2870;42.680;23.364;2023-08-21T00:01:39;17.77;;;11.70;;
5690;SDS011;2870;42.680;23.364;2023-08-21T00:04:06;18.67;;;9.60;;
5690;SDS011;2870;42.680;23.364;2023-08-21T00:06:33;14.93;;;9.87;;
5690;SDS011;2870;42.680;23.364;2023-08-21T00:09:00;16.83;;;10.50;;
5690;SDS011;2870;42.680;23.364;2023-08-21T00:11:27;16.40;;;9.63;;
5690;SDS011;2870;42.680;23.364;2023-08-21T00:13:54;14.90;;;9.23;;
5690;SDS011;2870;42.680;23.364;2023-08-21T00:16:22;21.20;;;10.20;;
5690;SDS011;2870;42.680;23.364;2023-08-21T00:18:49;13.50;;;10.07;;
5690;SDS011;2870;42.680;23.364;2023-08-21T00:21:15;16.60;;;9.10;;
5690;SDS011;2870;42.680;23.364;2023-08-21T00:23:42;15.03;;;8.73;;
5690;SDS011;2870;42.680;23.364;2023-08-21T00:26:09;16.37;;;8.50;;
5690;SDS011;2870;42.680;23.364;2023-08-21T00:28:36;12.27;;;9.67;;
5690;SDS011;2870;42.680;23.364;2023-08-21T00:31:02;17.30;;;10.20;;
5690;SDS011;2870;42.680;23.364;2023-08-21T00:33:31;15.57;;;9.67;;
5690;SDS011;2870;42.680;23.364;2023-08-21T00:35:59;13.50;;;9.23;;
5690;SDS011;2870;42.680;23.364;2023-08-21T00:38:27;15.00;;;8.57;;
5690;SDS011;2870;42.680;23.364;2023-08-21T00:40:54;23.03;;;9.87;;
5690;SDS011;2870;42.680;23.364;2023-08-21T00:43:22;16.73;;;8.80;;
5690;SDS011;2870;42.680;23.364;2023-08-21T00:45:49;15.10;;;10.20;;
5690;SDS011;2870;42.680;23.364;2023-08-21T00:48:17;14.03;;;10.20;;
5690;SDS011;2870;42.680;23.364;2023-08-21T00:50:46;14.53;;;9.03;;
5690;SDS011;2870;42.680;23.364;2023-08-21T00:53:13;18.93;;;9.40;;
5690;SDS011;2870;42.680;23.364;2023-08-21T00:55:40;16.50;;;9.77;;
5690;SDS011;2870;42.680;23.364;2023-08-21T00:58:08;18.57;;;9.17;;
5690;SDS011;2870;42.680;23.364;2023-08-21T01:00:36;13.80;;;9.60;;
5690;SDS011;2870;42.680;23.364;2023-08-21T01:03:04;16.13;;;9.43;;
5690;SDS011;2870;42.680;23.364;2023-08-21T01:05:31;16.83;;;9.80;;
5690;SDS011;2870;42.680;23.364;2023-08-21T01:08:01;19.13;;;9.23;;
5690;SDS011;2870;42.680;23.364;2023-08-21T01:10:34;18.13;;;10.20;;
5690;SDS011;2870;42.680;23.364;2023-08-21T01:13:10;24.73;;;10.07;;
5690;SDS011;2870;42.680;23.364;2023-08-21T01:15:46;16.53;;;10.20;;
5690;SDS011;2870;42.680;23.364;2023-08-21T01:18:15;16.20;;;10.83;;
5690;SDS011;2870;42.680;23.364;2023-08-21T01:20:42;14.20;;;9.97;;
5690;SDS011;2870;42.680;23.364;2023-08-21T01:23:26;16.67;;;10.90;;
5690;SDS011;2870;42.680;23.364;2023-08-21T01:25:59;14.40;;;9.97;;
5690;SDS011;2870;42.680;23.364;2023-08-21T01:28:26;15.90;;;10.10;;
5690;SDS011;2870;42.680;23.364;2023-08-21T01:30:54;12.87;;;9.00;;
5690;SDS011;2870;42.680;23.364;2023-08-21T01:33:27;14.63;;;10.13;;
5690;SDS011;2870;42.680;23.364;2023-08-21T01:35:57;14.37;;;10.03;;
5690;SDS011;2870;42.680;23.364;2023-08-21T01:38:26;16.23;;;10.10;;
5690;SDS011;2870;42.680;23.364;2023-08-21T01:40:53;14.00;;;9.47;;
5690;SDS011;2870;42.680;23.364;2023-08-21T01:43:20;15.43;;;10.90;;
5690;SDS011;2870;42.680;23.364;2023-08-21T01:45:46;14.73;;;9.90;;
5690;SDS011;2870;42.680;23.364;2023-08-21T01:48:16;15.10;;;10.73;;
5690;SDS011;2870;42.680;23.364;2023-08-21T01:50:43;16.70;;;9.83;;
5690;SDS011;2870;42.680;23.364;2023-08-21T01:53:09;15.00;;;9.57;;
5690;SDS011;2870;42.680;23.364;2023-08-21T01:55:38;20.83;;;10.37;;
5690;SDS011;2870;42.680;23.364;2023-08-21T01:58:04;19.70;;;9.77;;
5690;SDS011;2870;42.680;23.364;2023-08-21T02:03:32;16.30;;;9.93;;
5690;SDS011;2870;42.680;23.364;2023-08-21T02:05:59;17.93;;;9.93;;
5690;SDS011;2870;42.680;23.364;2023-08-21T02:08:31;19.00;;;11.13;;
5690;SDS011;2870;42.680;23.364;2023-08-21T02:10:59;21.13;;;9.90;;
5690;SDS011;2870;42.680;23.364;2023-08-21T02:13:26;17.50;;;10.33;;
5690;SDS011;2870;42.680;23.364;2023-08-21T02:15:53;13.23;;;9.73;;
5690;SDS011;2870;42.680;23.364;2023-08-21T02:18:20;13.30;;;9.90;;
5690;SDS011;2870;42.680;23.364;2023-08-21T02:20:47;18.10;;;10.70;;
5690;SDS011;2870;42.680;23.364;2023-08-21T02:23:14;14.20;;;10.20;;
5690;SDS011;2870;42.680;23.364;2023-08-21T02:25:41;13.80;;;10.63;;
5690;SDS011;2870;42.680;23.364;2023-08-21T02:28:10;15.70;;;10.40;;
5690;SDS011;2870;42.680;23.364;2023-08-21T02:30:39;19.17;;;10.90;;
5690;SDS011;2870;42.680;23.364;2023-08-21T02:33:06;15.33;;;10.10;;
5690;SDS011;2870;42.680;23.364;2023-08-21T02:35:33;20.13;;;11.37;;
5690;SDS011;2870;42.680;23.364;2023-08-21T02:37:59;18.73;;;10.47;;
5690;SDS011;2870;42.680;23.364;2023-08-21T02:40:28;14.00;;;9.90;;
5690;SDS011;2870;42.680;23.364;2023-08-21T02:42:54;22.43;;;10.57;;
5690;SDS011;2870;42.680;23.364;2023-08-21T02:45:22;16.57;;;10.40;;
5690;SDS011;2870;42.680;23.364;2023-08-21T02:47:49;14.20;;;10.27;;
5690;SDS011;2870;42.680;23.364;2023-08-21T02:50:16;20.47;;;10.40;;
5690;SDS011;2870;42.680;23.364;2023-08-21T02:52:43;17.87;;;10.27;;
5690;SDS011;2870;42.680;23.364;2023-08-21T02:55:10;14.20;;;10.17;;
5690;SDS011;2870;42.680;23.364;2023-08-21T02:57:37;17.07;;;10.70;;
5690;SDS011;2870;42.680;23.364;2023-08-21T03:00:04;15.63;;;10.80;;
5690;SDS011;2870;42.680;23.364;2023-08-21T03:02:34;14.57;;;9.50;;
5690;SDS011;2870;42.680;23.364;2023-08-21T03:05:00;18.23;;;10.40;;
5690;SDS011;2870;42.680;23.364;2023-08-21T03:07:27;13.40;;;9.33;;
5690;SDS011;2870;42.680;23.364;2023-08-21T03:09:54;15.60;;;9.03;;
5690;SDS011;2870;42.680;23.364;2023-08-21T03:12:21;13.50;;;9.70;;
5690;SDS011;2870;42.680;23.364;2023-08-21T03:14:47;17.00;;;10.60;;
5690;SDS011;2870;42.680;23.364;2023-08-21T03:17:14;16.00;;;10.20;;
5690;SDS011;2870;42.680;23.364;2023-08-21T03:19:42;17.23;;;10.73;;
5690;SDS011;2870;42.680;23.364;2023-08-21T03:22:09;15.50;;;9.97;;
5690;SDS011;2870;42.680;23.364;2023-08-21T03:24:36;19.03;;;11.13;;
5690;SDS011;2870;42.680;23.364;2023-08-21T03:27:03;20.13;;;12.17;;
5690;SDS011;2870;42.680;23.364;2023-08-21T03:29:30;19.30;;;10.60;;
5690;SDS011;2870;42.680;23.364;2023-08-21T03:31:57;16.57;;;10.90;;
5690;SDS011;2870;42.680;23.364;2023-08-21T03:34:24;15.73;;;9.97;;
5690;SDS011;2870;42.680;23.364;2023-08-21T03:36:52;14.30;;;10.70;;
5690;SDS011;2870;42.680;23.364;2023-08-21T03:39:19;15.30;;;10.80;;
5690;SDS011;2870;42.680;23.364;2023-08-21T03:41:45;15.30;;;10.27;;
5690;SDS011;2870;42.680;23.364;2023-08-21T03:44:14;18.23;;;10.03;;
5690;SDS011;2870;42.680;23.364;2023-08-21T03:46:40;18.60;;;10.27;;
5690;SDS011;2870;42.680;23.364;2023-08-21T03:49:07;15.03;;;10.80;;
5690;SDS011;2870;42.680;23.364;2023-08-21T03:51:34;20.60;;;10.83;;
5690;SDS011;2870;42.680;23.364;2023-08-21T03:54:02;13.40;;;9.63;;
5690;SDS011;2870;42.680;23.364;2023-08-21T03:56:29;15.60;;;10.77;;
5690;SDS011;2870;42.680;23.364;2023-08-21T03:58:57;15.17;;;10.03;;
5690;SDS011;2870;42.680;23.364;2023-08-21T04:01:24;16.23;;;9.67;;
5690;SDS011;2870;42.680;23.364;2023-08-21T04:03:51;12.70;;;8.60;;
5690;SDS011;2870;42.680;23.364;2023-08-21T04:06:18;17.37;;;9.53;;
5690;SDS011;2870;42.680;23.364;2023-08-21T04:08:44;19.33;;;10.13;;
5690;SDS011;2870;42.680;23.364;2023-08-21T04:11:12;15.67;;;9.50;;
5690;SDS011;2870;42.680;23.364;2023-08-21T04:13:39;15.97;;;9.30;;
5690;SDS011;2870;42.680;23.364;2023-08-21T04:16:06;13.70;;;9.83;;
5690;SDS011;2870;42.680;23.364;2023-08-21T04:18:33;16.63;;;10.47;;
5690;SDS011;2870;42.680;23.364;2023-08-21T04:21:01;17.30;;;10.30;;
5690;SDS011;2870;42.680;23.364;2023-08-21T04:23:28;21.90;;;10.20;;
5690;SDS011;2870;42.680;23.364;2023-08-21T04:25:59;14.30;;;9.57;;
5690;SDS011;2870;42.680;23.364;2023-08-21T04:28:29;19.40;;;10.87;;
5690;SDS011;2870;42.680;23.364;2023-08-21T04:30:56;15.67;;;9.57;;
5690;SDS011;2870;42.680;23.364;2023-08-21T04:33:23;19.40;;;10.23;;
5690;SDS011;2870;42.680;23.364;2023-08-21T04:35:50;18.00;;;11.20;;
5690;SDS011;2870;42.680;23.364;2023-08-21T04:38:17;16.20;;;10.50;;
5690;SDS011;2870;42.680;23.364;2023-08-21T04:40:44;17.87;;;10.47;;
5690;SDS011;2870;42.680;23.364;2023-08-21T04:43:11;19.23;;;10.60;;
5690;SDS011;2870;42.680;23.364;2023-08-21T04:45:39;18.10;;;10.10;;
5690;SDS011;2870;42.680;23.364;2023-08-21T04:48:13;17.80;;;11.43;;
5690;SDS011;2870;42.680;23.364;2023-08-21T04:50:40;14.57;;;10.40;;
5690;SDS011;2870;42.680;23.364;2023-08-21T04:53:06;14.80;;;10.53;;
5690;SDS011;2870;42.680;23.364;2023-08-21T04:55:33;15.60;;;11.07;;
5690;SDS011;2870;42.680;23.364;2023-08-21T04:58:01;14.53;;;10.33;;
5690;SDS011;2870;42.680;23.364;2023-08-21T05:00:28;15.93;;;10.60;;
5690;SDS011;2870;42.680;23.364;2023-08-21T05:02:56;17.27;;;11.20;;
5690;SDS011;2870;42.680;23.364;2023-08-21T05:05:23;23.00;;;12.90;;
5690;SDS011;2870;42.680;23.364;2023-08-21T05:07:51;30.00;;;11.70;;
5690;SDS011;2870;42.680;23.364;2023-08-21T05:10:18;22.10;;;11.57;;
5690;SDS011;2870;42.680;23.364;2023-08-21T05:12:46;19.63;;;11.67;;
5690;SDS011;2870;42.680;23.364;2023-08-21T05:15:13;20.40;;;11.90;;
5690;SDS011;2870;42.680;23.364;2023-08-21T05:17:40;21.03;;;13.27;;
5690;SDS011;2870;42.680;23.364;2023-08-21T05:20:09;19.20;;;12.00;;
5690;SDS011;2870;42.680;23.364;2023-08-21T05:22:39;22.17;;;12.70;;
5690;SDS011;2870;42.680;23.364;2023-08-21T05:25:06;23.20;;;13.60;;
5690;SDS011;2870;42.680;23.364;2023-08-21T05:27:33;21.77;;;12.03;;
5690;SDS011;2870;42.680;23.364;2023-08-21T05:30:00;17.03;;;11.23;;
5690;SDS011;2870;42.680;23.364;2023-08-21T05:32:27;19.03;;;11.20;;
5690;SDS011;2870;42.680;23.364;2023-08-21T05:34:53;17.57;;;10.57;;
5690;SDS011;2870;42.680;23.364;2023-08-21T05:37:22;21.43;;;10.97;;
5690;SDS011;2870;42.680;23.364;2023-08-21T05:39:48;16.60;;;10.77;;
5690;SDS011;2870;42.680;23.364;2023-08-21T05:42:15;19.70;;;10.27;;
5690;SDS011;2870;42.680;23.364;2023-08-21T05:44:42;16.70;;;10.20;;
5690;SDS011;2870;42.680;23.364;2023-08-21T05:47:09;18.10;;;10.57;;
5690;SDS011;2870;42.680;23.364;2023-08-21T05:49:35;26.67;;;10.97;;
5690;SDS011;2870;42.680;23.364;2023-08-21T05:52:02;19.67;;;11.47;;
5690;SDS011;2870;42.680;23.364;2023-08-21T05:54:30;17.60;;;11.57;;
5690;SDS011;2870;42.680;23.364;2023-08-21T05:56:57;27.97;;;12.00;;
5690;SDS011;2870;42.680;23.364;2023-08-21T05:59:29;27.50;;;11.90;;
5690;SDS011;2870;42.680;23.364;2023-08-21T06:01:57;17.83;;;11.40;;
5690;SDS011;2870;42.680;23.364;2023-08-21T06:04:23;20.87;;;11.37;;
5690;SDS011;2870;42.680;23.364;2023-08-21T06:06:52;18.83;;;10.40;;
5690;SDS011;2870;42.680;23.364;2023-08-21T06:09:19;21.90;;;10.10;;
5690;SDS011;2870;42.680;23.364;2023-08-21T06:11:47;21.27;;;10.50;;
5690;SDS011;2870;42.680;23.364;2023-08-21T06:14:14;21.57;;;11.10;;
5690;SDS011;2870;42.680;23.364;2023-08-21T06:16:40;22.17;;;10.40;;
5690;SDS011;2870;42.680;23.364;2023-08-21T06:19:08;21.20;;;10.33;;
5690;SDS011;2870;42.680;23.364;2023-08-21T06:21:35;14.80;;;9.83;;
5690;SDS011;2870;42.680;23.364;2023-08-21T06:24:03;30.63;;;10.80;;
5690;SDS011;2870;42.680;23.364;2023-08-21T06:26:30;15.10;;;9.97;;
5690;SDS011;2870;42.680;23.364;2023-08-21T06:28:58;18.27;;;9.80;;
5690;SDS011;2870;42.680;23.364;2023-08-21T06:31:25;14.23;;;9.53;;
5690;SDS011;2870;42.680;23.364;2023-08-21T06:33:52;14.37;;;8.83;;
5690;SDS011;2870;42.680;23.364;2023-08-21T06:36:18;22.10;;;9.63;;
5690;SDS011;2870;42.680;23.364;2023-08-21T06:38:45;15.60;;;9.53;;
5690;SDS011;2870;42.680;23.364;2023-08-21T06:41:12;16.30;;;9.70;;
5690;SDS011;2870;42.680;23.364;2023-08-21T06:43:39;24.93;;;9.50;;
5690;SDS011;2870;42.680;23.364;2023-08-21T06:46:07;12.00;;;8.47;;
5690;SDS011;2870;42.680;23.364;2023-08-21T06:48:36;16.07;;;9.40;;
5690;SDS011;2870;42.680;23.364;2023-08-21T06:51:04;22.90;;;13.50;;
5690;SDS011;2870;42.680;23.364;2023-08-21T06:53:31;25.63;;;13.10;;
5690;SDS011;2870;42.680;23.364;2023-08-21T06:55:58;24.90;;;13.60;;
5690;SDS011;2870;42.680;23.364;2023-08-21T06:58:24;20.63;;;9.80;;
5690;SDS011;2870;42.680;23.364;2023-08-21T07:00:53;16.93;;;9.63;;
5690;SDS011;2870;42.680;23.364;2023-08-21T07:03:22;15.30;;;9.67;;
5690;SDS011;2870;42.680;23.364;2023-08-21T07:05:53;23.90;;;8.93;;
5690;SDS011;2870;42.680;23.364;2023-08-21T07:08:20;26.03;;;9.27;;
5690;SDS011;2870;42.680;23.364;2023-08-21T07:10:47;80.93;;;12.77;;
5690;SDS011;2870;42.680;23.364;2023-08-21T07:13:14;14.93;;;9.90;;
5690;SDS011;2870;42.680;23.364;2023-08-21T07:15:40;18.10;;;9.33;;
5690;SDS011;2870;42.680;23.364;2023-08-21T07:18:07;14.80;;;8.87;;
5690;SDS011;2870;42.680;23.364;2023-08-21T07:20:35;22.87;;;9.90;;
5690;SDS011;2870;42.680;23.364;2023-08-21T07:23:03;19.60;;;8.97;;
5690;SDS011;2870;42.680;23.364;2023-08-21T07:25:30;18.87;;;9.83;;
5690;SDS011;2870;42.680;23.364;2023-08-21T07:27:56;15.57;;;9.70;;
5690;SDS011;2870;42.680;23.364;2023-08-21T07:30:23;12.23;;;8.77;;
5690;SDS011;2870;42.680;23.364;2023-08-21T07:32:52;21.10;;;9.20;;
5690;SDS011;2870;42.680;23.364;2023-08-21T07:35:19;18.90;;;9.90;;
5690;SDS011;2870;42.680;23.364;2023-08-21T07:37:48;16.30;;;9.00;;
5690;SDS011;2870;42.680;23.364;2023-08-21T07:40:15;17.93;;;8.90;;
5690;SDS011;2870;42.680;23.364;2023-08-21T07:42:42;21.37;;;9.40;;
5690;SDS011;2870;42.680;23.364;2023-08-21T07:45:09;29.10;;;8.93;;
5690;SDS011;2870;42.680;23.364;2023-08-21T07:47:36;27.70;;;9.40;;
5690;SDS011;2870;42.680;23.364;2023-08-21T07:50:03;15.13;;;8.77;;
5690;SDS011;2870;42.680;23.364;2023-08-21T07:52:32;10.87;;;6.90;;
5690;SDS011;2870;42.680;23.364;2023-08-21T07:55:00;19.80;;;7.93;;
5690;SDS011;2870;42.680;23.364;2023-08-21T07:57:28;11.83;;;7.60;;
5690;SDS011;2870;42.680;23.364;2023-08-21T07:59:55;26.97;;;9.00;;
5690;SDS011;2870;42.680;23.364;2023-08-21T08:02:22;19.87;;;9.10;;
5690;SDS011;2870;42.680;23.364;2023-08-21T08:04:49;11.67;;;7.60;;
5690;SDS011;2870;42.680;23.364;2023-08-21T08:07:16;21.30;;;8.27;;
5690;SDS011;2870;42.680;23.364;2023-08-21T08:09:43;16.80;;;7.30;;
5690;SDS011;2870;42.680;23.364;2023-08-21T08:12:11;15.00;;;7.13;;
5690;SDS011;2870;42.680;23.364;2023-08-21T08:14:38;10.90;;;7.00;;
5690;SDS011;2870;42.680;23.364;2023-08-21T08:17:05;11.73;;;7.10;;
5690;SDS011;2870;42.680;23.364;2023-08-21T08:19:31;10.90;;;6.03;;
5690;SDS011;2870;42.680;23.364;2023-08-21T08:21:58;11.77;;;7.20;;
5690;SDS011;2870;42.680;23.364;2023-08-21T08:24:25;11.00;;;6.70;;
5690;SDS011;2870;42.680;23.364;2023-08-21T08:26:52;10.80;;;6.13;;
5690;SDS011;2870;42.680;23.364;2023-08-21T08:29:20;12.00;;;6.30;;
5690;SDS011;2870;42.680;23.364;2023-08-21T08:31:47;8.17;;;5.80;;
5690;SDS011;2870;42.680;23.364;2023-08-21T08:34:14;11.30;;;6.30;;
5690;SDS011;2870;42.680;23.364;2023-08-21T08:36:43;10.37;;;6.33;;
5690;SDS011;2870;42.680;23.364;2023-08-21T08:39:09;10.50;;;5.73;;
5690;SDS011;2870;42.680;23.364;2023-08-21T08:41:38;10.50;;;6.13;;
5690;SDS011;2870;42.680;23.364;2023-08-21T08:44:10;11.80;;;5.83;;
5690;SDS011;2870;42.680;23.364;2023-08-21T08:46:40;14.43;;;5.60;;
5690;SDS011;2870;42.680;23.364;2023-08-21T08:49:07;10.20;;;5.90;;
5690;SDS011;2870;42.680;23.364;2023-08-21T08:51:34;10.53;;;5.10;;
5690;SDS011;2870;42.680;23.364;2023-08-21T08:54:04;8.97;;;5.97;;
5690;SDS011;2870;42.680;23.364;2023-08-21T08:56:30;16.80;;;5.40;;
5690;SDS011;2870;42.680;23.364;2023-08-21T08:58:57;10.23;;;5.50;;
5690;SDS011;2870;42.680;23.364;2023-08-21T09:01:24;14.70;;;6.10;;
5690;SDS011;2870;42.680;23.364;2023-08-21T09:03:52;8.13;;;5.17;;
5690;SDS011;2870;42.680;23.364;2023-08-21T09:06:19;9.17;;;5.70;;
5690;SDS011;2870;42.680;23.364;2023-08-21T09:08:53;7.97;;;4.40;;
5690;SDS011;2870;42.680;23.364;2023-08-21T09:11:20;11.63;;;4.80;;
5690;SDS011;2870;42.680;23.364;2023-08-21T09:13:48;13.73;;;5.73;;
5690;SDS011;2870;42.680;23.364;2023-08-21T09:16:15;12.20;;;5.50;;
5690;SDS011;2870;42.680;23.364;2023-08-21T09:18:46;9.13;;;5.57;;
5690;SDS011;2870;42.680;23.364;2023-08-21T09:21:16;10.80;;;5.70;;
5690;SDS011;2870;42.680;23.364;2023-08-21T09:23:43;10.63;;;5.77;;
5690;SDS011;2870;42.680;23.364;2023-08-21T09:26:11;13.40;;;5.50;;
5690;SDS011;2870;42.680;23.364;2023-08-21T09:28:44;17.43;;;5.40;;
5690;SDS011;2870;42.680;23.364;2023-08-21T09:31:11;10.23;;;5.60;;
5690;SDS011;2870;42.680;23.364;2023-08-21T09:33:56;8.87;;;5.07;;
5690;SDS011;2870;42.680;23.364;2023-08-21T09:36:25;10.53;;;4.67;;
5690;SDS011;2870;42.680;23.364;2023-08-21T09:38:52;9.07;;;5.20;;
5690;SDS011;2870;42.680;23.364;2023-08-21T09:41:19;11.27;;;4.73;;
5690;SDS011;2870;42.680;23.364;2023-08-21T09:43:46;12.30;;;4.83;;
5690;SDS011;2870;42.680;23.364;2023-08-21T09:46:14;9.47;;;5.67;;
5690;SDS011;2870;42.680;23.364;2023-08-21T09:48:41;12.00;;;4.73;;
5690;SDS011;2870;42.680;23.364;2023-08-21T09:51:09;15.63;;;5.30;;
5690;SDS011;2870;42.680;23.364;2023-08-21T09:53:38;8.03;;;5.00;;
5690;SDS011;2870;42.680;23.364;2023-08-21T09:56:06;8.67;;;4.73;;
5690;SDS011;2870;42.680;23.364;2023-08-21T09:58:34;8.90;;;4.83;;
5690;SDS011;2870;42.680;23.364;2023-08-21T10:01:04;8.80;;;5.10;;
5690;SDS011;2870;42.680;23.364;2023-08-21T10:03:36;10.07;;;4.60;;
5690;SDS011;2870;42.680;23.364;2023-08-21T10:06:05;8.30;;;5.43;;
5690;SDS011;2870;42.680;23.364;2023-08-21T10:08:32;8.30;;;5.07;;
5690;SDS011;2870;42.680;23.364;2023-08-21T10:11:06;9.37;;;4.73;;
5690;SDS011;2870;42.680;23.364;2023-08-21T10:13:34;10.10;;;4.47;;
5690;SDS011;2870;42.680;23.364;2023-08-21T10:16:03;7.27;;;4.90;;
5690;SDS011;2870;42.680;23.364;2023-08-21T10:18:32;12.93;;;4.93;;
5690;SDS011;2870;42.680;23.364;2023-08-21T10:21:11;6.80;;;4.23;;
5690;SDS011;2870;42.680;23.364;2023-08-21T10:23:40;13.57;;;4.80;;
5690;SDS011;2870;42.680;23.364;2023-08-21T10:26:09;13.03;;;5.30;;
5690;SDS011;2870;42.680;23.364;2023-08-21T10:31:28;21.13;;;5.13;;
5690;SDS011;2870;42.680;23.364;2023-08-21T10:33:55;6.40;;;4.47;;
5690;SDS011;2870;42.680;23.364;2023-08-21T10:36:38;7.20;;;4.40;;
5690;SDS011;2870;42.680;23.364;2023-08-21T10:39:13;6.73;;;4.60;;
5690;SDS011;2870;42.680;23.364;2023-08-21T10:41:42;16.70;;;4.83;;
5690;SDS011;2870;42.680;23.364;2023-08-21T10:44:33;11.00;;;5.00;;
5690;SDS011;2870;42.680;23.364;2023-08-21T10:47:12;11.27;;;4.70;;
5690;SDS011;2870;42.680;23.364;2023-08-21T10:49:40;10.63;;;4.60;;
5690;SDS011;2870;42.680;23.364;2023-08-21T10:52:07;7.43;;;4.33;;
5690;SDS011;2870;42.680;23.364;2023-08-21T10:54:43;9.40;;;4.93;;
5690;SDS011;2870;42.680;23.364;2023-08-21T10:57:11;11.97;;;5.10;;
5690;SDS011;2870;42.680;23.364;2023-08-21T10:59:38;10.60;;;4.90;;
5690;SDS011;2870;42.680;23.364;2023-08-21T11:02:05;16.83;;;4.73;;
5690;SDS011;2870;42.680;23.364;2023-08-21T11:04:39;7.73;;;4.27;;
5690;SDS011;2870;42.680;23.364;2023-08-21T11:07:06;8.00;;;4.87;;
5690;SDS011;2870;42.680;23.364;2023-08-21T11:09:35;11.63;;;5.57;;
5690;SDS011;2870;42.680;23.364;2023-08-21T11:12:06;15.60;;;5.90;;
5690;SDS011;2870;42.680;23.364;2023-08-21T11:14:34;13.03;;;4.97;;
5690;SDS011;2870;42.680;23.364;2023-08-21T11:17:01;10.00;;;4.90;;
5690;SDS011;2870;42.680;23.364;2023-08-21T11:19:29;13.10;;;4.30;;
5690;SDS011;2870;42.680;23.364;2023-08-21T11:21:56;8.93;;;4.40;;
5690;SDS011;2870;42.680;23.364;2023-08-21T11:24:29;8.50;;;4.40;;
5690;SDS011;2870;42.680;23.364;2023-08-21T11:26:56;10.07;;;4.73;;
5690;SDS011;2870;42.680;23.364;2023-08-21T11:29:25;19.03;;;4.70;;
5690;SDS011;2870;42.680;23.364;2023-08-21T11:31:52;7.20;;;4.37;;
5690;SDS011;2870;42.680;23.364;2023-08-21T11:34:19;9.73;;;5.37;;
5690;SDS011;2870;42.680;23.364;2023-08-21T11:36:47;6.80;;;4.90;;
5690;SDS011;2870;42.680;23.364;2023-08-21T11:39:14;9.03;;;4.40;;
5690;SDS011;2870;42.680;23.364;2023-08-21T11:41:53;9.80;;;4.97;;
5690;SDS011;2870;42.680;23.364;2023-08-21T11:44:20;12.60;;;4.57;;
5690;SDS011;2870;42.680;23.364;2023-08-21T11:46:48;12.30;;;5.20;;
5690;SDS011;2870;42.680;23.364;2023-08-21T11:49:17;9.33;;;4.53;;
5690;SDS011;2870;42.680;23.364;2023-08-21T11:51:44;7.43;;;4.60;;
5690;SDS011;2870;42.680;23.364;2023-08-21T11:54:12;8.07;;;5.00;;
5690;SDS011;2870;42.680;23.364;2023-08-21T11:56:39;8.60;;;4.57;;
5690;SDS011;2870;42.680;23.364;2023-08-21T11:59:07;7.03;;;4.90;;
5690;SDS011;2870;42.680;23.364;2023-08-21T12:01:34;23.70;;;5.00;;
5690;SDS011;2870;42.680;23.364;2023-08-21T12:04:02;10.13;;;5.43;;
5690;SDS011;2870;42.680;23.364;2023-08-21T12:06:43;13.50;;;4.90;;
5690;SDS011;2870;42.680;23.364;2023-08-21T12:09:10;11.50;;;4.90;;
5690;SDS011;2870;42.680;23.364;2023-08-21T12:11:37;11.63;;;4.40;;
5690;SDS011;2870;42.680;23.364;2023-08-21T12:14:04;15.63;;;5.60;;
5690;SDS011;2870;42.680;23.364;2023-08-21T12:16:30;8.83;;;5.17;;
5690;SDS011;2870;42.680;23.364;2023-08-21T12:18:57;7.17;;;4.97;;
5690;SDS011;2870;42.680;23.364;2023-08-21T12:21:25;7.57;;;4.53;;
5690;SDS011;2870;42.680;23.364;2023-08-21T12:23:52;8.20;;;5.07;;
5690;SDS011;2870;42.680;23.364;2023-08-21T12:26:19;8.00;;;4.50;;
5690;SDS011;2870;42.680;23.364;2023-08-21T12:28:46;8.70;;;4.97;;
5690;SDS011;2870;42.680;23.364;2023-08-21T12:31:13;11.93;;;5.40;;
5690;SDS011;2870;42.680;23.364;2023-08-21T12:33:40;12.03;;;4.70;;
5690;SDS011;2870;42.680;23.364;2023-08-21T12:36:07;7.07;;;4.70;;
5690;SDS011;2870;42.680;23.364;2023-08-21T12:38:36;6.80;;;4.53;;
5690;SDS011;2870;42.680;23.364;2023-08-21T12:41:03;7.00;;;4.40;;
5690;SDS011;2870;42.680;23.364;2023-08-21T12:43:30;8.23;;;4.57;;
5690;SDS011;2870;42.680;23.364;2023-08-21T12:45:57;8.70;;;5.37;;
5690;SDS011;2870;42.680;23.364;2023-08-21T12:48:24;11.93;;;5.33;;
5690;SDS011;2870;42.680;23.364;2023-08-21T12:50:51;13.40;;;5.13;;
5690;SDS011;2870;42.680;23.364;2023-08-21T12:53:18;9.60;;;4.70;;
5690;SDS011;2870;42.680;23.364;2023-08-21T12:55:46;12.00;;;4.77;;
5690;SDS011;2870;42.680;23.364;2023-08-21T12:58:14;9.77;;;5.00;;
5690;SDS011;2870;42.680;23.364;2023-08-21T13:00:40;9.97;;;4.90;;
5690;SDS011;2870;42.680;23.364;2023-08-21T13:03:07;11.50;;;4.60;;
5690;SDS011;2870;42.680;23.364;2023-08-21T13:05:34;7.43;;;4.53;;
5690;SDS011;2870;42.680;23.364;2023-08-21T13:08:01;13.03;;;4.97;;
5690;SDS011;2870;42.680;23.364;2023-08-21T13:10:28;16.67;;;4.83;;
5690;SDS011;2870;42.680;23.364;2023-08-21T13:12:56;8.10;;;4.70;;
5690;SDS011;2870;42.680;23.364;2023-08-21T13:15:23;16.13;;;5.47;;
5690;SDS011;2870;42.680;23.364;2023-08-21T13:17:49;10.00;;;5.10;;
5690;SDS011;2870;42.680;23.364;2023-08-21T13:20:16;13.50;;;5.77;;
5690;SDS011;2870;42.680;23.364;2023-08-21T13:22:44;12.70;;;5.03;;
5690;SDS011;2870;42.680;23.364;2023-08-21T13:25:12;6.50;;;4.70;;
5690;SDS011;2870;42.680;23.364;2023-08-21T13:27:39;8.47;;;5.10;;
5690;SDS011;2870;42.680;23.364;2023-08-21T13:30:08;10.20;;;5.40;;
5690;SDS011;2870;42.680;23.364;2023-08-21T13:32:35;6.70;;;4.70;;
5690;SDS011;2870;42.680;23.364;2023-08-21T13:35:02;6.73;;;4.63;;
5690;SDS011;2870;42.680;23.364;2023-08-21T13:37:32;8.50;;;5.30;;
5690;SDS011;2870;42.680;23.364;2023-08-21T13:39:59;26.50;;;5.80;;
5690;SDS011;2870;42.680;23.364;2023-08-21T13:42:26;17.80;;;5.53;;
5690;SDS011;2870;42.680;23.364;2023-08-21T13:44:55;10.20;;;4.90;;
5690;SDS011;2870;42.680;23.364;2023-08-21T13:47:23;9.40;;;5.33;;
5690;SDS011;2870;42.680;23.364;2023-08-21T13:49:50;8.73;;;5.00;;
5690;SDS011;2870;42.680;23.364;2023-08-21T13:52:17;14.03;;;5.80;;
5690;SDS011;2870;42.680;23.364;2023-08-21T13:54:43;11.37;;;5.60;;
5690;SDS011;2870;42.680;23.364;2023-08-21T13:57:10;7.53;;;5.00;;
5690;SDS011;2870;42.680;23.364;2023-08-21T13:59:37;9.60;;;5.40;;
5690;SDS011;2870;42.680;23.364;2023-08-21T14:02:04;14.40;;;5.40;;
5690;SDS011;2870;42.680;23.364;2023-08-21T14:04:33;10.10;;;5.43;;
5690;SDS011;2870;42.680;23.364;2023-08-21T14:06:59;8.57;;;5.23;;
5690;SDS011;2870;42.680;23.364;2023-08-21T14:09:26;10.80;;;4.97;;
5690;SDS011;2870;42.680;23.364;2023-08-21T14:11:53;9.27;;;5.80;;
5690;SDS011;2870;42.680;23.364;2023-08-21T14:14:19;14.33;;;5.43;;
5690;SDS011;2870;42.680;23.364;2023-08-21T14:16:46;9.43;;;5.50;;
5690;SDS011;2870;42.680;23.364;2023-08-21T14:19:13;8.57;;;6.07;;
5690;SDS011;2870;42.680;23.364;2023-08-21T14:21:41;13.20;;;5.83;;
5690;SDS011;2870;42.680;23.364;2023-08-21T14:24:08;10.03;;;5.70;;
5690;SDS011;2870;42.680;23.364;2023-08-21T14:26:34;9.83;;;4.80;;
5690;SDS011;2870;42.680;23.364;2023-08-21T14:29:01;7.00;;;4.53;;
5690;SDS011;2870;42.680;23.364;2023-08-21T14:31:28;10.60;;;5.23;;
5690;SDS011;2870;42.680;23.364;2023-08-21T14:33:55;9.20;;;5.63;;
5690;SDS011;2870;42.680;23.364;2023-08-21T14:36:22;10.93;;;5.60;;
5690;SDS011;2870;42.680;23.364;2023-08-21T14:38:51;9.30;;;5.40;;
5690;SDS011;2870;42.680;23.364;2023-08-21T14:41:17;15.47;;;5.57;;
5690;SDS011;2870;42.680;23.364;2023-08-21T14:43:44;21.80;;;4.97;;
5690;SDS011;2870;42.680;23.364;2023-08-21T14:46:11;13.30;;;5.80;;
5690;SDS011;2870;42.680;23.364;2023-08-21T14:48:38;10.27;;;5.60;;
5690;SDS011;2870;42.680;23.364;2023-08-21T14:51:05;7.70;;;5.07;;
5690;SDS011;2870;42.680;23.364;2023-08-21T14:53:32;9.03;;;5.67;;
5690;SDS011;2870;42.680;23.364;2023-08-21T14:56:00;11.83;;;5.27;;